Pagina principale
METAR-TAF:

METAR-TAF

Aeroporti :

Aeroporto Internazionale di Yap

Yap, Micronesia

latitudine: 09-29N, longitudine: 138-05E, altezza: 28 m

Osservazione

Il bollettino è stato emesso 28 minuti fa, alle 22:52 UTC
Vento 8 kt da sud-ovest
Temperature 29°C
Umidità 79%
Pressione 1009 hPa
Visibilità: 19.3 km
Nubi sparse ad un'altezza di 1600 ft, Cumulo congesto.
Nuvoloso ad un'altezza di 13000 ft
Cielo coperto ad un'altezza di 30000 ft

METAR: PTYA 192252Z 23008KT 12SM SCT016TCU BKN130 OVC300 29/25 A2980 RMK SHRAE02 TCU ALQDS SLP093 T02880251

Ora: 09:20 (23:20 UTC)

Previsione

Il bollettino è stato emesso 6 ore e 0 minuti fa, alle 17:20 UTC
Previsione valida dal 19 alle 18 UTC al 20 alle 18 UTC
Vento 9 kt da ovest/sud-ovest
Visibilità: 10 km
Nubi sparse ad un'altezza di 1800 ft
Nubi sparse ad un'altezza di 5000 ft
Cielo coperto ad un'altezza di 13000 ft
rovesci nelle vicinanze

TAF: PTYA 191720Z 1918/2018 25009KT P6SM VCSH SCT018 SCT050 OVC130

Osservazioni e previsioni meteorologiche di più di 4000 aeroporti (messaggi METAR e TAF).

Le stazioni disponibili sono rappresentate dai dischi gialli e rossi sulla carta.

Puntare il mouse per vedere il nome della stazione.

Clicca sopra per visualizzare le osservazioni e previsioni meteorologiche.

Per cambiare la mappa : fare clic sui pulsanti verdi con una croce nera per ingrandire, il pulsante verde con un trattino per diminuire, o sulla freccia verde per le mappe adiacenti.


METAR-TAF: